| Date | Time | Temp. (oF) | Dew Point (oF) | Rel. Hum. (%) | Press. (in.) | Wind Dir. | Wind Speed (mph) | Hourly Rainfall (in.) |
|
|---|---|---|---|---|---|---|---|---|---|
| 1 | 04/06 | 00:00 | 46 | 36 | 68 | 30.12 | NE | 4 | 0.00 |
| 2 | 04/05 | 23:00 | 47 | 36 | 66 | 30.12 | NNE | 4 | 0.00 |
| 3 | 04/05 | 22:00 | 48 | 36 | 65 | 30.12 | NNE | 2 | 0.00 |
| 4 | 04/05 | 21:00 | 50 | 37 | 63 | 30.11 | NNE | 8 | 0.00 |
| 5 | 04/05 | 20:00 | 51 | 37 | 60 | 30.08 | N | 6 | 0.00 |
| 6 | 04/05 | 19:00 | 53 | 38 | 58 | 30.06 | N | 7 | 0.00 |
| 7 | 04/05 | 18:00 | 54 | 38 | 55 | 30.05 | NNE | 10 | 0.00 |
| 8 | 04/05 | 17:00 | 56 | 39 | 53 | 30.02 | NE | 3 | 0.00 |
| 9 | 04/05 | 16:00 | 57 | 40 | 54 | 30.02 | NW | 8 | 0.00 |
| 10 | 04/05 | 15:00 | 55 | 41 | 60 | 30.03 | NW | 5 | 0.00 |
| 11 | 04/05 | 14:00 | 54 | 40 | 60 | 30.03 | NNE | 6 | 0.00 |
| 12 | 04/05 | 13:00 | 54 | 42 | 66 | 30.04 | WNW | 17 | 0.00 |
| 13 | 04/05 | 12:00 | 52 | 42 | 69 | 30.03 | NNW | 7 | 0.00 |
| 14 | 04/05 | 11:00 | 50 | 41 | 73 | 30.03 | NW | 11 | 0.00 |
| 15 | 04/05 | 10:00 | 50 | 43 | 79 | 30.01 | WNW | 8 | 0.00 |
| 16 | 04/05 | 09:00 | 51 | 45 | 80 | 29.95 | NNW | 11 | 0.00 |
| 17 | 04/05 | 08:00 | 51 | 46 | 85 | 29.93 | NW | 9 | 0.01 |
| 18 | 04/05 | 07:00 | 50 | 50 | 100 | 29.87 | NW | 3 | 0.00 |
| 19 | 04/05 | 06:00 | 47 | 46 | 100 | 29.82 | NW | 1 | 0.00 |
| 20 | 04/05 | 05:00 | 48 | 48 | 100 | 29.78 | SSW | 1 | 0.00 |
| 21 | 04/05 | 04:00 | 48 | 48 | 100 | 29.77 | SSW | 3 | 0.00 |
| 22 | 04/05 | 03:00 | 49 | 49 | 100 | 29.78 | NNW | 5 | 0.00 |
| 23 | 04/05 | 02:00 | 50 | 49 | 99 | 29.77 | NW | 1 | 0.01 |
| 24 | 04/05 | 01:00 | 50 | 49 | 99 | 29.76 | NNW | 2 | 0.00 |